sensor_id;sensor_type;location;lat;lon;timestamp;P1;durP1;ratioP1;P2;durP2;ratioP2
48040;SDS011;33815;48.386;11.738;2023-08-06T09:15:32;0.95;;;0.57;;
48040;SDS011;33815;48.386;11.738;2023-08-06T09:17:58;1.13;;;0.68;;
48040;SDS011;33815;48.386;11.738;2023-08-06T09:20:24;0.70;;;0.50;;
48040;SDS011;33815;48.386;11.738;2023-08-06T09:22:49;0.63;;;0.63;;
48040;SDS011;33815;48.386;11.738;2023-08-06T09:25:24;1.10;;;0.60;;
48040;SDS011;33815;48.386;11.738;2023-08-06T09:27:50;1.80;;;0.55;;
48040;SDS011;33815;48.386;11.738;2023-08-06T09:30:29;0.68;;;0.68;;
48040;SDS011;33815;48.386;11.738;2023-08-06T09:32:56;1.23;;;0.63;;
48040;SDS011;33815;48.386;11.738;2023-08-06T09:35:22;1.05;;;0.95;;
48040;SDS011;33815;48.386;11.738;2023-08-06T09:37:48;0.50;;;0.50;;
48040;SDS011;33815;48.386;11.738;2023-08-06T09:40:27;0.50;;;0.50;;
48040;SDS011;33815;48.386;11.738;2023-08-06T09:42:54;1.67;;;0.50;;
48040;SDS011;33815;48.386;11.738;2023-08-06T09:45:19;1.10;;;0.70;;
48040;SDS011;33815;48.386;11.738;2023-08-06T09:47:47;0.75;;;0.60;;
48040;SDS011;33815;48.386;11.738;2023-08-06T09:50:20;1.13;;;0.50;;
48040;SDS011;33815;48.386;11.738;2023-08-06T09:52:48;0.55;;;0.43;;
48040;SDS011;33815;48.386;11.738;2023-08-06T09:55:16;0.98;;;0.50;;
48040;SDS011;33815;48.386;11.738;2023-08-06T09:57:43;0.50;;;0.30;;
48040;SDS011;33815;48.386;11.738;2023-08-06T10:00:09;0.32;;;0.32;;
48040;SDS011;33815;48.386;11.738;2023-08-06T10:02:37;2.33;;;0.82;;
48040;SDS011;33815;48.386;11.738;2023-08-06T10:05:03;0.70;;;0.70;;
48040;SDS011;33815;48.386;11.738;2023-08-06T10:07:30;1.33;;;0.30;;
48040;SDS011;33815;48.386;11.738;2023-08-06T10:09:55;0.70;;;0.50;;
48040;SDS011;33815;48.386;11.738;2023-08-06T10:12:21;0.50;;;0.50;;
48040;SDS011;33815;48.386;11.738;2023-08-06T10:14:47;3.03;;;0.60;;
48040;SDS011;33815;48.386;11.738;2023-08-06T10:17:14;0.68;;;0.65;;
48040;SDS011;33815;48.386;11.738;2023-08-06T10:19:40;2.25;;;0.60;;
48040;SDS011;33815;48.386;11.738;2023-08-06T10:22:13;0.40;;;0.40;;
48040;SDS011;33815;48.386;11.738;2023-08-06T10:27:21;0.38;;;0.38;;
48040;SDS011;33815;48.386;11.738;2023-08-06T10:32:49;0.43;;;0.43;;
48040;SDS011;33815;48.386;11.738;2023-08-06T10:35:35;0.38;;;0.35;;
48040;SDS011;33815;48.386;11.738;2023-08-06T10:38:17;1.45;;;0.60;;
48040;SDS011;33815;48.386;11.738;2023-08-06T10:43:25;0.40;;;0.40;;
48040;SDS011;33815;48.386;11.738;2023-08-06T10:45:52;0.30;;;0.30;;
48040;SDS011;33815;48.386;11.738;2023-08-06T10:48:30;1.40;;;0.40;;
48040;SDS011;33815;48.386;11.738;2023-08-06T10:50:59;0.25;;;0.25;;
48040;SDS011;33815;48.386;11.738;2023-08-06T10:53:25;0.30;;;0.30;;
48040;SDS011;33815;48.386;11.738;2023-08-06T10:55:50;0.30;;;0.30;;
48040;SDS011;33815;48.386;11.738;2023-08-06T10:58:16;0.35;;;0.35;;
48040;SDS011;33815;48.386;11.738;2023-08-06T11:00:41;0.80;;;0.52;;
48040;SDS011;33815;48.386;11.738;2023-08-06T11:03:07;0.20;;;0.20;;
48040;SDS011;33815;48.386;11.738;2023-08-06T11:05:33;0.65;;;0.20;;
48040;SDS011;33815;48.386;11.738;2023-08-06T11:07:59;0.20;;;0.20;;
48040;SDS011;33815;48.386;11.738;2023-08-06T11:10:24;1.40;;;0.70;;
48040;SDS011;33815;48.386;11.738;2023-08-06T11:12:49;0.80;;;0.40;;
48040;SDS011;33815;48.386;11.738;2023-08-06T11:15:14;0.68;;;0.30;;
48040;SDS011;33815;48.386;11.738;2023-08-06T11:17:40;3.95;;;0.40;;
48040;SDS011;33815;48.386;11.738;2023-08-06T11:20:06;0.22;;;0.20;;
48040;SDS011;33815;48.386;11.738;2023-08-06T11:22:32;0.85;;;0.32;;
48040;SDS011;33815;48.386;11.738;2023-08-06T11:24:58;0.55;;;0.30;;
48040;SDS011;33815;48.386;11.738;2023-08-06T11:27:25;0.40;;;0.40;;
48040;SDS011;33815;48.386;11.738;2023-08-06T11:29:53;2.10;;;0.25;;
48040;SDS011;33815;48.386;11.738;2023-08-06T11:32:18;0.20;;;0.20;;
48040;SDS011;33815;48.386;11.738;2023-08-06T11:34:43;3.70;;;0.40;;
48040;SDS011;33815;48.386;11.738;2023-08-06T11:37:09;0.20;;;0.20;;
48040;SDS011;33815;48.386;11.738;2023-08-06T11:39:35;0.20;;;0.20;;
48040;SDS011;33815;48.386;11.738;2023-08-06T11:42:05;0.20;;;0.20;;
48040;SDS011;33815;48.386;11.738;2023-08-06T11:44:34;0.77;;;0.20;;
48040;SDS011;33815;48.386;11.738;2023-08-06T11:47:00;2.83;;;0.57;;
48040;SDS011;33815;48.386;11.738;2023-08-06T11:49:44;0.90;;;0.40;;
48040;SDS011;33815;48.386;11.738;2023-08-06T11:54:37;0.32;;;0.20;;
48040;SDS011;33815;48.386;11.738;2023-08-06T11:57:02;0.75;;;0.30;;
48040;SDS011;33815;48.386;11.738;2023-08-06T11:59:30;0.20;;;0.20;;
48040;SDS011;33815;48.386;11.738;2023-08-06T12:01:55;1.65;;;0.20;;
48040;SDS011;33815;48.386;11.738;2023-08-06T12:04:20;1.30;;;0.30;;
48040;SDS011;33815;48.386;11.738;2023-08-06T12:06:45;0.23;;;0.23;;
48040;SDS011;33815;48.386;11.738;2023-08-06T12:09:11;0.30;;;0.30;;
48040;SDS011;33815;48.386;11.738;2023-08-06T12:11:36;0.20;;;0.20;;
48040;SDS011;33815;48.386;11.738;2023-08-06T12:14:01;0.10;;;0.10;;
48040;SDS011;33815;48.386;11.738;2023-08-06T12:16:27;0.20;;;0.20;;
48040;SDS011;33815;48.386;11.738;2023-08-06T12:18:53;0.20;;;0.20;;
48040;SDS011;33815;48.386;11.738;2023-08-06T12:21:18;0.10;;;0.10;;
48040;SDS011;33815;48.386;11.738;2023-08-06T12:23:43;4.77;;;0.30;;
48040;SDS011;33815;48.386;11.738;2023-08-06T12:26:09;0.20;;;0.20;;
48040;SDS011;33815;48.386;11.738;2023-08-06T12:28:34;0.15;;;0.15;;
48040;SDS011;33815;48.386;11.738;2023-08-06T12:30:59;0.50;;;0.20;;
48040;SDS011;33815;48.386;11.738;2023-08-06T12:33:24;0.20;;;0.20;;
48040;SDS011;33815;48.386;11.738;2023-08-06T12:35:50;0.10;;;0.10;;
48040;SDS011;33815;48.386;11.738;2023-08-06T12:38:15;2.72;;;0.20;;
48040;SDS011;33815;48.386;11.738;2023-08-06T12:40:40;0.30;;;0.10;;
48040;SDS011;33815;48.386;11.738;2023-08-06T12:43:06;2.30;;;0.30;;
48040;SDS011;33815;48.386;11.738;2023-08-06T12:45:31;0.30;;;0.20;;
48040;SDS011;33815;48.386;11.738;2023-08-06T12:47:56;0.50;;;0.15;;
48040;SDS011;33815;48.386;11.738;2023-08-06T12:50:21;1.40;;;0.30;;
48040;SDS011;33815;48.386;11.738;2023-08-06T12:52:47;0.20;;;0.20;;
48040;SDS011;33815;48.386;11.738;2023-08-06T12:55:12;0.57;;;0.57;;
48040;SDS011;33815;48.386;11.738;2023-08-06T12:57:38;0.30;;;0.30;;
48040;SDS011;33815;48.386;11.738;2023-08-06T13:00:03;0.30;;;0.30;;
48040;SDS011;33815;48.386;11.738;2023-08-06T13:02:29;0.30;;;0.30;;
48040;SDS011;33815;48.386;11.738;2023-08-06T13:04:55;1.02;;;0.30;;
48040;SDS011;33815;48.386;11.738;2023-08-06T13:07:20;0.25;;;0.20;;
48040;SDS011;33815;48.386;11.738;2023-08-06T13:09:46;0.20;;;0.20;;
48040;SDS011;33815;48.386;11.738;2023-08-06T13:12:11;1.93;;;0.40;;
48040;SDS011;33815;48.386;11.738;2023-08-06T13:14:36;0.20;;;0.20;;
48040;SDS011;33815;48.386;11.738;2023-08-06T13:17:01;0.37;;;0.30;;
48040;SDS011;33815;48.386;11.738;2023-08-06T13:19:27;0.20;;;0.20;;
48040;SDS011;33815;48.386;11.738;2023-08-06T13:22:03;0.20;;;0.20;;
48040;SDS011;33815;48.386;11.738;2023-08-06T13:24:33;0.25;;;0.22;;
48040;SDS011;33815;48.386;11.738;2023-08-06T13:26:59;1.50;;;0.30;;
48040;SDS011;33815;48.386;11.738;2023-08-06T13:29:25;0.82;;;0.20;;
48040;SDS011;33815;48.386;11.738;2023-08-06T13:31:51;0.15;;;0.15;;
48040;SDS011;33815;48.386;11.738;2023-08-06T13:34:16;0.10;;;0.10;;
48040;SDS011;33815;48.386;11.738;2023-08-06T13:36:42;0.20;;;0.20;;
48040;SDS011;33815;48.386;11.738;2023-08-06T13:39:07;0.20;;;0.20;;
48040;SDS011;33815;48.386;11.738;2023-08-06T13:41:32;0.20;;;0.20;;
48040;SDS011;33815;48.386;11.738;2023-08-06T13:43:58;1.15;;;0.20;;
48040;SDS011;33815;48.386;11.738;2023-08-06T13:46:23;0.20;;;0.20;;
48040;SDS011;33815;48.386;11.738;2023-08-06T13:48:49;0.13;;;0.13;;
48040;SDS011;33815;48.386;11.738;2023-08-06T13:51:15;0.20;;;0.20;;
48040;SDS011;33815;48.386;11.738;2023-08-06T13:53:41;0.20;;;0.20;;
48040;SDS011;33815;48.386;11.738;2023-08-06T13:56:06;2.93;;;0.30;;
48040;SDS011;33815;48.386;11.738;2023-08-06T13:58:34;0.20;;;0.20;;
48040;SDS011;33815;48.386;11.738;2023-08-06T14:01:00;0.30;;;0.30;;
48040;SDS011;33815;48.386;11.738;2023-08-06T14:03:25;0.35;;;0.35;;
48040;SDS011;33815;48.386;11.738;2023-08-06T14:05:51;0.20;;;0.20;;
48040;SDS011;33815;48.386;11.738;2023-08-06T14:08:16;0.55;;;0.20;;
48040;SDS011;33815;48.386;11.738;2023-08-06T14:10:43;0.32;;;0.20;;
48040;SDS011;33815;48.386;11.738;2023-08-06T14:13:09;0.35;;;0.35;;
48040;SDS011;33815;48.386;11.738;2023-08-06T14:15:35;0.28;;;0.28;;
48040;SDS011;33815;48.386;11.738;2023-08-06T14:18:00;0.30;;;0.30;;
48040;SDS011;33815;48.386;11.738;2023-08-06T14:20:26;0.68;;;0.40;;
48040;SDS011;33815;48.386;11.738;2023-08-06T14:22:51;2.53;;;2.20;;
48040;SDS011;33815;48.386;11.738;2023-08-06T14:25:16;1.88;;;0.32;;
48040;SDS011;33815;48.386;11.738;2023-08-06T14:27:41;0.30;;;0.30;;
48040;SDS011;33815;48.386;11.738;2023-08-06T14:30:07;0.40;;;0.40;;
48040;SDS011;33815;48.386;11.738;2023-08-06T14:32:32;0.52;;;0.52;;
48040;SDS011;33815;48.386;11.738;2023-08-06T14:34:58;0.40;;;0.40;;
48040;SDS011;33815;48.386;11.738;2023-08-06T14:37:24;5.40;;;0.60;;
48040;SDS011;33815;48.386;11.738;2023-08-06T14:39:49;0.95;;;0.60;;
48040;SDS011;33815;48.386;11.738;2023-08-06T14:42:14;0.85;;;0.50;;
48040;SDS011;33815;48.386;11.738;2023-08-06T14:44:40;0.73;;;0.52;;
48040;SDS011;33815;48.386;11.738;2023-08-06T14:47:06;0.75;;;0.40;;
48040;SDS011;33815;48.386;11.738;2023-08-06T14:49:31;0.50;;;0.50;;
48040;SDS011;33815;48.386;11.738;2023-08-06T14:51:56;5.77;;;0.67;;
48040;SDS011;33815;48.386;11.738;2023-08-06T14:54:25;2.22;;;1.10;;
48040;SDS011;33815;48.386;11.738;2023-08-06T14:56:51;0.40;;;0.40;;
48040;SDS011;33815;48.386;11.738;2023-08-06T14:59:16;0.60;;;0.60;;
48040;SDS011;33815;48.386;11.738;2023-08-06T15:01:41;0.63;;;0.40;;
48040;SDS011;33815;48.386;11.738;2023-08-06T15:04:07;0.40;;;0.40;;
48040;SDS011;33815;48.386;11.738;2023-08-06T15:06:32;0.55;;;0.55;;
48040;SDS011;33815;48.386;11.738;2023-08-06T15:08:57;0.43;;;0.43;;
48040;SDS011;33815;48.386;11.738;2023-08-06T15:11:25;0.77;;;0.40;;
48040;SDS011;33815;48.386;11.738;2023-08-06T15:13:51;0.65;;;0.47;;
48040;SDS011;33815;48.386;11.738;2023-08-06T15:16:16;1.55;;;0.40;;
48040;SDS011;33815;48.386;11.738;2023-08-06T15:18:42;0.32;;;0.32;;
48040;SDS011;33815;48.386;11.738;2023-08-06T15:21:08;0.50;;;0.50;;
48040;SDS011;33815;48.386;11.738;2023-08-06T15:23:34;0.55;;;0.50;;
48040;SDS011;33815;48.386;11.738;2023-08-06T15:25:59;3.28;;;2.78;;
48040;SDS011;33815;48.386;11.738;2023-08-06T15:28:24;1.50;;;1.38;;
48040;SDS011;33815;48.386;11.738;2023-08-06T15:30:50;0.50;;;0.50;;
48040;SDS011;33815;48.386;11.738;2023-08-06T15:33:17;2.65;;;2.20;;
48040;SDS011;33815;48.386;11.738;2023-08-06T15:35:43;4.60;;;3.10;;
48040;SDS011;33815;48.386;11.738;2023-08-06T15:38:08;1.33;;;1.23;;
48040;SDS011;33815;48.386;11.738;2023-08-06T15:40:33;5.03;;;2.00;;
48040;SDS011;33815;48.386;11.738;2023-08-06T15:42:59;1.50;;;0.63;;
48040;SDS011;33815;48.386;11.738;2023-08-06T15:45:24;0.40;;;0.40;;
48040;SDS011;33815;48.386;11.738;2023-08-06T15:47:49;0.77;;;0.77;;
48040;SDS011;33815;48.386;11.738;2023-08-06T15:50:15;0.47;;;0.47;;
48040;SDS011;33815;48.386;11.738;2023-08-06T15:52:40;1.10;;;0.52;;
48040;SDS011;33815;48.386;11.738;2023-08-06T15:55:06;2.33;;;2.13;;
48040;SDS011;33815;48.386;11.738;2023-08-06T15:57:34;0.70;;;0.70;;
48040;SDS011;33815;48.386;11.738;2023-08-06T16:00:00;0.55;;;0.55;;
48040;SDS011;33815;48.386;11.738;2023-08-06T16:02:26;0.52;;;0.52;;
48040;SDS011;33815;48.386;11.738;2023-08-06T16:04:52;0.60;;;0.60;;
48040;SDS011;33815;48.386;11.738;2023-08-06T16:07:18;1.00;;;1.00;;
48040;SDS011;33815;48.386;11.738;2023-08-06T16:09:44;1.08;;;0.77;;
48040;SDS011;33815;48.386;11.738;2023-08-06T16:12:09;0.70;;;0.65;;
48040;SDS011;33815;48.386;11.738;2023-08-06T16:14:35;1.65;;;1.23;;
48040;SDS011;33815;48.386;11.738;2023-08-06T16:17:00;1.00;;;0.90;;
48040;SDS011;33815;48.386;11.738;2023-08-06T16:19:26;1.15;;;0.82;;
48040;SDS011;33815;48.386;11.738;2023-08-06T16:21:51;0.67;;;0.67;;
48040;SDS011;33815;48.386;11.738;2023-08-06T16:24:16;0.60;;;0.60;;
48040;SDS011;33815;48.386;11.738;2023-08-06T16:26:42;1.88;;;0.70;;
48040;SDS011;33815;48.386;11.738;2023-08-06T16:29:07;0.53;;;0.53;;
48040;SDS011;33815;48.386;11.738;2023-08-06T16:31:32;2.72;;;0.90;;
48040;SDS011;33815;48.386;11.738;2023-08-06T16:33:57;0.97;;;0.90;;
48040;SDS011;33815;48.386;11.738;2023-08-06T16:36:23;0.77;;;0.77;;
48040;SDS011;33815;48.386;11.738;2023-08-06T16:38:49;0.57;;;0.57;;
48040;SDS011;33815;48.386;11.738;2023-08-06T16:41:14;0.60;;;0.60;;
48040;SDS011;33815;48.386;11.738;2023-08-06T16:43:39;0.60;;;0.60;;
48040;SDS011;33815;48.386;11.738;2023-08-06T16:46:05;0.57;;;0.57;;
48040;SDS011;33815;48.386;11.738;2023-08-06T16:48:30;1.33;;;0.80;;
48040;SDS011;33815;48.386;11.738;2023-08-06T16:50:59;0.68;;;0.68;;
48040;SDS011;33815;48.386;11.738;2023-08-06T16:53:25;0.70;;;0.70;;
48040;SDS011;33815;48.386;11.738;2023-08-06T16:55:52;0.52;;;0.52;;
48040;SDS011;33815;48.386;11.738;2023-08-06T16:58:18;0.75;;;0.70;;
48040;SDS011;33815;48.386;11.738;2023-08-06T17:00:44;0.70;;;0.70;;
48040;SDS011;33815;48.386;11.738;2023-08-06T17:03:10;4.90;;;2.45;;
48040;SDS011;33815;48.386;11.738;2023-08-06T17:05:35;3.30;;;0.77;;
48040;SDS011;33815;48.386;11.738;2023-08-06T17:08:01;0.77;;;0.77;;
48040;SDS011;33815;48.386;11.738;2023-08-06T17:10:26;0.85;;;0.85;;
48040;SDS011;33815;48.386;11.738;2023-08-06T17:12:51;0.75;;;0.60;;
48040;SDS011;33815;48.386;11.738;2023-08-06T17:15:18;0.50;;;0.50;;
48040;SDS011;33815;48.386;11.738;2023-08-06T17:17:43;0.65;;;0.65;;
48040;SDS011;33815;48.386;11.738;2023-08-06T17:20:08;0.60;;;0.60;;
48040;SDS011;33815;48.386;11.738;2023-08-06T17:22:34;1.42;;;0.75;;
48040;SDS011;33815;48.386;11.738;2023-08-06T17:24:59;0.70;;;0.70;;
48040;SDS011;33815;48.386;11.738;2023-08-06T17:27:24;0.70;;;0.70;;
48040;SDS011;33815;48.386;11.738;2023-08-06T17:29:50;0.70;;;0.70;;
48040;SDS011;33815;48.386;11.738;2023-08-06T17:32:15;0.75;;;0.60;;
48040;SDS011;33815;48.386;11.738;2023-08-06T17:34:41;0.60;;;0.60;;
48040;SDS011;33815;48.386;11.738;2023-08-06T17:37:06;0.65;;;0.65;;
48040;SDS011;33815;48.386;11.738;2023-08-06T17:39:32;1.05;;;0.80;;
48040;SDS011;33815;48.386;11.738;2023-08-06T17:41:57;0.50;;;0.50;;
48040;SDS011;33815;48.386;11.738;2023-08-06T17:44:23;0.70;;;0.60;;
48040;SDS011;33815;48.386;11.738;2023-08-06T17:46:48;0.55;;;0.55;;
48040;SDS011;33815;48.386;11.738;2023-08-06T17:49:14;0.93;;;0.70;;
48040;SDS011;33815;48.386;11.738;2023-08-06T17:51:39;0.70;;;0.70;;
48040;SDS011;33815;48.386;11.738;2023-08-06T17:54:04;0.70;;;0.70;;
48040;SDS011;33815;48.386;11.738;2023-08-06T17:56:29;0.95;;;0.60;;
48040;SDS011;33815;48.386;11.738;2023-08-06T17:58:55;2.17;;;0.70;;
48040;SDS011;33815;48.386;11.738;2023-08-06T18:01:21;2.65;;;0.70;;
48040;SDS011;33815;48.386;11.738;2023-08-06T18:03:47;1.00;;;0.63;;
48040;SDS011;33815;48.386;11.738;2023-08-06T18:06:14;2.33;;;0.60;;
48040;SDS011;33815;48.386;11.738;2023-08-06T18:08:39;1.00;;;0.63;;
48040;SDS011;33815;48.386;11.738;2023-08-06T18:11:05;0.95;;;0.73;;
48040;SDS011;33815;48.386;11.738;2023-08-06T18:13:30;0.77;;;0.70;;
48040;SDS011;33815;48.386;11.738;2023-08-06T18:15:55;0.40;;;0.40;;
48040;SDS011;33815;48.386;11.738;2023-08-06T18:18:20;1.17;;;0.63;;
48040;SDS011;33815;48.386;11.738;2023-08-06T18:20:46;0.70;;;0.70;;
48040;SDS011;33815;48.386;11.738;2023-08-06T18:23:11;1.33;;;1.23;;
48040;SDS011;33815;48.386;11.738;2023-08-06T18:25:36;0.73;;;0.73;;
48040;SDS011;33815;48.386;11.738;2023-08-06T18:28:02;0.57;;;0.57;;
48040;SDS011;33815;48.386;11.738;2023-08-06T18:30:27;0.82;;;0.82;;
48040;SDS011;33815;48.386;11.738;2023-08-06T18:32:53;0.70;;;0.70;;
48040;SDS011;33815;48.386;11.738;2023-08-06T18:35:18;1.27;;;0.77;;
48040;SDS011;33815;48.386;11.738;2023-08-06T18:37:43;0.50;;;0.50;;
48040;SDS011;33815;48.386;11.738;2023-08-06T18:40:08;0.60;;;0.60;;
48040;SDS011;33815;48.386;11.738;2023-08-06T18:42:34;0.60;;;0.60;;
48040;SDS011;33815;48.386;11.738;2023-08-06T18:45:00;1.65;;;0.90;;
48040;SDS011;33815;48.386;11.738;2023-08-06T18:47:26;3.28;;;0.77;;
48040;SDS011;33815;48.386;11.738;2023-08-06T18:49:53;0.52;;;0.52;;
48040;SDS011;33815;48.386;11.738;2023-08-06T18:52:18;0.47;;;0.47;;
48040;SDS011;33815;48.386;11.738;2023-08-06T18:54:44;0.60;;;0.60;;
48040;SDS011;33815;48.386;11.738;2023-08-06T18:57:09;0.70;;;0.70;;
48040;SDS011;33815;48.386;11.738;2023-08-06T18:59:35;2.85;;;1.10;;
48040;SDS011;33815;48.386;11.738;2023-08-06T19:02:01;0.73;;;0.73;;
48040;SDS011;33815;48.386;11.738;2023-08-06T19:04:27;1.08;;;0.85;;
48040;SDS011;33815;48.386;11.738;2023-08-06T19:06:52;5.50;;;0.90;;
48040;SDS011;33815;48.386;11.738;2023-08-06T19:09:18;0.60;;;0.60;;
48040;SDS011;33815;48.386;11.738;2023-08-06T19:11:43;1.30;;;1.30;;
48040;SDS011;33815;48.386;11.738;2023-08-06T19:14:08;0.73;;;0.73;;
48040;SDS011;33815;48.386;11.738;2023-08-06T19:16:34;0.53;;;0.50;;
48040;SDS011;33815;48.386;11.738;2023-08-06T19:18:59;2.35;;;0.77;;
48040;SDS011;33815;48.386;11.738;2023-08-06T19:21:24;0.70;;;0.70;;
48040;SDS011;33815;48.386;11.738;2023-08-06T19:23:50;0.68;;;0.68;;
48040;SDS011;33815;48.386;11.738;2023-08-06T19:26:15;0.75;;;0.63;;
48040;SDS011;33815;48.386;11.738;2023-08-06T19:28:40;0.88;;;0.70;;
48040;SDS011;33815;48.386;11.738;2023-08-06T19:31:06;1.95;;;0.90;;
48040;SDS011;33815;48.386;11.738;2023-08-06T19:33:31;0.60;;;0.60;;
48040;SDS011;33815;48.386;11.738;2023-08-06T19:35:56;1.52;;;0.80;;
48040;SDS011;33815;48.386;11.738;2023-08-06T19:38:22;2.27;;;0.80;;
48040;SDS011;33815;48.386;11.738;2023-08-06T19:40:49;0.63;;;0.63;;
48040;SDS011;33815;48.386;11.738;2023-08-06T19:43:15;0.98;;;0.95;;
48040;SDS011;33815;48.386;11.738;2023-08-06T19:45:46;1.05;;;0.95;;
48040;SDS011;33815;48.386;11.738;2023-08-06T19:48:14;0.60;;;0.60;;
48040;SDS011;33815;48.386;11.738;2023-08-06T19:50:40;1.65;;;0.60;;
48040;SDS011;33815;48.386;11.738;2023-08-06T19:53:05;1.00;;;0.73;;
48040;SDS011;33815;48.386;11.738;2023-08-06T19:55:30;1.95;;;0.80;;
48040;SDS011;33815;48.386;11.738;2023-08-06T19:57:56;0.98;;;0.90;;
48040;SDS011;33815;48.386;11.738;2023-08-06T20:00:21;0.90;;;0.90;;
48040;SDS011;33815;48.386;11.738;2023-08-06T20:02:47;0.70;;;0.70;;
48040;SDS011;33815;48.386;11.738;2023-08-06T20:05:12;0.73;;;0.73;;
48040;SDS011;33815;48.386;11.738;2023-08-06T20:07:37;0.73;;;0.73;;
48040;SDS011;33815;48.386;11.738;2023-08-06T20:10:02;0.73;;;0.63;;
48040;SDS011;33815;48.386;11.738;2023-08-06T20:12:28;0.80;;;0.80;;
48040;SDS011;33815;48.386;11.738;2023-08-06T20:14:53;0.90;;;0.70;;
48040;SDS011;33815;48.386;11.738;2023-08-06T20:17:19;1.02;;;0.95;;
48040;SDS011;33815;48.386;11.738;2023-08-06T20:19:44;1.17;;;0.88;;
48040;SDS011;33815;48.386;11.738;2023-08-06T20:22:09;0.70;;;0.70;;
48040;SDS011;33815;48.386;11.738;2023-08-06T20:24:34;1.67;;;0.93;;
48040;SDS011;33815;48.386;11.738;2023-08-06T20:27:00;0.75;;;0.75;;
48040;SDS011;33815;48.386;11.738;2023-08-06T20:29:26;1.25;;;0.82;;
48040;SDS011;33815;48.386;11.738;2023-08-06T20:31:52;1.30;;;0.88;;
48040;SDS011;33815;48.386;11.738;2023-08-06T20:34:17;0.80;;;0.80;;
48040;SDS011;33815;48.386;11.738;2023-08-06T20:36:43;0.90;;;0.90;;
48040;SDS011;33815;48.386;11.738;2023-08-06T20:39:08;2.00;;;1.00;;
48040;SDS011;33815;48.386;11.738;2023-08-06T20:41:33;0.93;;;0.88;;
48040;SDS011;33815;48.386;11.738;2023-08-06T20:43:58;1.65;;;0.93;;
48040;SDS011;33815;48.386;11.738;2023-08-06T20:46:24;0.90;;;0.90;;
48040;SDS011;33815;48.386;11.738;2023-08-06T20:48:49;0.90;;;0.90;;
48040;SDS011;33815;48.386;11.738;2023-08-06T20:51:15;1.50;;;0.95;;
48040;SDS011;33815;48.386;11.738;2023-08-06T20:53:40;1.05;;;0.90;;
48040;SDS011;33815;48.386;11.738;2023-08-06T20:56:06;0.70;;;0.70;;
48040;SDS011;33815;48.386;11.738;2023-08-06T20:58:31;2.20;;;0.97;;
48040;SDS011;33815;48.386;11.738;2023-08-06T21:00:57;0.82;;;0.77;;
48040;SDS011;33815;48.386;11.738;2023-08-06T21:03:24;0.85;;;0.80;;
48040;SDS011;33815;48.386;11.738;2023-08-06T21:06:00;1.50;;;1.08;;
48040;SDS011;33815;48.386;11.738;2023-08-06T21:08:29;1.63;;;1.10;;
48040;SDS011;33815;48.386;11.738;2023-08-06T21:10:56;1.50;;;0.90;;
48040;SDS011;33815;48.386;11.738;2023-08-06T21:13:21;1.05;;;0.95;;
48040;SDS011;33815;48.386;11.738;2023-08-06T21:15:53;1.13;;;1.00;;
48040;SDS011;33815;48.386;11.738;2023-08-06T21:18:26;0.98;;;0.98;;
48040;SDS011;33815;48.386;11.738;2023-08-06T21:20:53;0.88;;;0.88;;
48040;SDS011;33815;48.386;11.738;2023-08-06T21:23:19;0.85;;;0.85;;
48040;SDS011;33815;48.386;11.738;2023-08-06T21:25:56;1.10;;;1.00;;
48040;SDS011;33815;48.386;11.738;2023-08-06T21:33:18;2.63;;;1.20;;
48040;SDS011;33815;48.386;11.738;2023-08-06T21:35:43;3.30;;;1.10;;
48040;SDS011;33815;48.386;11.738;2023-08-06T21:38:08;1.10;;;1.00;;
48040;SDS011;33815;48.386;11.738;2023-08-06T21:40:34;0.75;;;0.70;;
48040;SDS011;33815;48.386;11.738;2023-08-06T21:43:00;1.27;;;0.95;;
48040;SDS011;33815;48.386;11.738;2023-08-06T21:45:25;1.48;;;0.95;;
48040;SDS011;33815;48.386;11.738;2023-08-06T21:47:50;1.58;;;1.27;;
48040;SDS011;33815;48.386;11.738;2023-08-06T21:50:15;1.90;;;1.20;;
48040;SDS011;33815;48.386;11.738;2023-08-06T21:52:41;2.40;;;1.15;;
48040;SDS011;33815;48.386;11.738;2023-08-06T21:55:06;3.13;;;1.13;;
48040;SDS011;33815;48.386;11.738;2023-08-06T21:57:32;0.95;;;0.82;;
48040;SDS011;33815;48.386;11.738;2023-08-06T21:59:57;1.20;;;1.10;;
48040;SDS011;33815;48.386;11.738;2023-08-06T22:02:22;1.27;;;0.83;;
48040;SDS011;33815;48.386;11.738;2023-08-06T22:04:48;1.10;;;0.97;;
48040;SDS011;33815;48.386;11.738;2023-08-06T22:07:13;1.10;;;1.00;;
48040;SDS011;33815;48.386;11.738;2023-08-06T22:09:38;0.93;;;0.93;;
48040;SDS011;33815;48.386;11.738;2023-08-06T22:12:04;1.30;;;0.90;;
48040;SDS011;33815;48.386;11.738;2023-08-06T22:14:29;1.30;;;1.20;;
48040;SDS011;33815;48.386;11.738;2023-08-06T22:16:54;1.50;;;1.40;;
48040;SDS011;33815;48.386;11.738;2023-08-06T22:19:20;3.45;;;1.42;;
48040;SDS011;33815;48.386;11.738;2023-08-06T22:21:45;0.90;;;0.90;;
48040;SDS011;33815;48.386;11.738;2023-08-06T22:24:10;1.57;;;1.47;;
48040;SDS011;33815;48.386;11.738;2023-08-06T22:26:35;1.20;;;1.10;;
48040;SDS011;33815;48.386;11.738;2023-08-06T22:29:01;1.20;;;1.10;;
48040;SDS011;33815;48.386;11.738;2023-08-06T22:31:26;1.70;;;0.90;;
48040;SDS011;33815;48.386;11.738;2023-08-06T22:33:52;1.90;;;1.10;;
48040;SDS011;33815;48.386;11.738;2023-08-06T22:36:17;1.17;;;1.08;;
48040;SDS011;33815;48.386;11.738;2023-08-06T22:38:42;1.57;;;1.30;;
48040;SDS011;33815;48.386;11.738;2023-08-06T22:41:07;1.67;;;1.20;;
48040;SDS011;33815;48.386;11.738;2023-08-06T22:43:33;2.45;;;1.02;;
48040;SDS011;33815;48.386;11.738;2023-08-06T22:45:58;1.45;;;0.93;;
48040;SDS011;33815;48.386;11.738;2023-08-06T22:48:24;1.95;;;1.23;;
48040;SDS011;33815;48.386;11.738;2023-08-06T22:50:50;1.55;;;1.20;;
48040;SDS011;33815;48.386;11.738;2023-08-06T22:53:15;1.30;;;1.05;;
48040;SDS011;33815;48.386;11.738;2023-08-06T22:55:40;1.30;;;1.20;;
48040;SDS011;33815;48.386;11.738;2023-08-06T22:58:05;2.53;;;1.35;;
48040;SDS011;33815;48.386;11.738;2023-08-06T23:00:31;2.90;;;1.07;;
48040;SDS011;33815;48.386;11.738;2023-08-06T23:02:56;2.20;;;1.00;;
48040;SDS011;33815;48.386;11.738;2023-08-06T23:05:21;1.85;;;1.38;;
48040;SDS011;33815;48.386;11.738;2023-08-06T23:07:47;2.33;;;1.30;;
48040;SDS011;33815;48.386;11.738;2023-08-06T23:10:12;2.43;;;1.10;;
48040;SDS011;33815;48.386;11.738;2023-08-06T23:12:37;1.38;;;1.08;;
48040;SDS011;33815;48.386;11.738;2023-08-06T23:15:03;4.03;;;1.23;;
48040;SDS011;33815;48.386;11.738;2023-08-06T23:17:28;1.77;;;1.38;;
48040;SDS011;33815;48.386;11.738;2023-08-06T23:19:54;1.15;;;1.05;;
48040;SDS011;33815;48.386;11.738;2023-08-06T23:22:21;1.13;;;1.10;;
48040;SDS011;33815;48.386;11.738;2023-08-06T23:24:47;1.23;;;1.13;;
48040;SDS011;33815;48.386;11.738;2023-08-06T23:27:12;0.70;;;0.70;;
48040;SDS011;33815;48.386;11.738;2023-08-06T23:29:37;2.70;;;1.20;;
48040;SDS011;33815;48.386;11.738;2023-08-06T23:32:02;4.00;;;1.43;;
48040;SDS011;33815;48.386;11.738;2023-08-06T23:34:28;1.98;;;1.08;;
48040;SDS011;33815;48.386;11.738;2023-08-06T23:36:53;2.20;;;0.93;;
48040;SDS011;33815;48.386;11.738;2023-08-06T23:39:19;1.17;;;1.02;;
48040;SDS011;33815;48.386;11.738;2023-08-06T23:41:44;1.60;;;1.00;;
48040;SDS011;33815;48.386;11.738;2023-08-06T23:44:09;0.87;;;0.87;;
48040;SDS011;33815;48.386;11.738;2023-08-06T23:46:35;6.45;;;1.20;;
48040;SDS011;33815;48.386;11.738;2023-08-06T23:49:01;1.15;;;1.00;;
48040;SDS011;33815;48.386;11.738;2023-08-06T23:51:26;1.85;;;1.45;;
48040;SDS011;33815;48.386;11.738;2023-08-06T23:53:51;2.70;;;1.10;;
48040;SDS011;33815;48.386;11.738;2023-08-06T23:56:16;1.23;;;1.20;;